sensor_id;sensor_type;location;lat;lon;timestamp;P1;durP1;ratioP1;P2;durP2;ratioP2
82760;SDS011;72498;42.022;21.444;2023-11-19T00:02:01;3.50;;;1.20;;
82760;SDS011;72498;42.022;21.444;2023-11-19T00:04:30;3.80;;;1.25;;
82760;SDS011;72498;42.022;21.444;2023-11-19T00:07:16;3.38;;;1.10;;
82760;SDS011;72498;42.022;21.444;2023-11-19T00:09:42;4.85;;;1.38;;
82760;SDS011;72498;42.022;21.444;2023-11-19T00:12:08;4.47;;;1.38;;
82760;SDS011;72498;42.022;21.444;2023-11-19T00:14:38;5.90;;;1.60;;
82760;SDS011;72498;42.022;21.444;2023-11-19T00:17:05;4.93;;;1.73;;
82760;SDS011;72498;42.022;21.444;2023-11-19T00:19:32;7.85;;;1.70;;
82760;SDS011;72498;42.022;21.444;2023-11-19T00:22:01;6.18;;;1.50;;
82760;SDS011;72498;42.022;21.444;2023-11-19T00:24:29;3.22;;;1.20;;
82760;SDS011;72498;42.022;21.444;2023-11-19T00:26:57;4.50;;;1.70;;
82760;SDS011;72498;42.022;21.444;2023-11-19T00:29:23;3.90;;;1.30;;
82760;SDS011;72498;42.022;21.444;2023-11-19T00:31:49;4.63;;;1.55;;
82760;SDS011;72498;42.022;21.444;2023-11-19T00:34:17;6.95;;;1.40;;
82760;SDS011;72498;42.022;21.444;2023-11-19T00:36:48;4.55;;;1.40;;
82760;SDS011;72498;42.022;21.444;2023-11-19T00:39:17;4.65;;;1.63;;
82760;SDS011;72498;42.022;21.444;2023-11-19T00:41:44;4.25;;;1.30;;
82760;SDS011;72498;42.022;21.444;2023-11-19T00:44:17;7.13;;;1.63;;
82760;SDS011;72498;42.022;21.444;2023-11-19T00:46:45;8.20;;;1.70;;
82760;SDS011;72498;42.022;21.444;2023-11-19T00:49:17;3.90;;;1.23;;
82760;SDS011;72498;42.022;21.444;2023-11-19T00:51:46;4.53;;;1.63;;
82760;SDS011;72498;42.022;21.444;2023-11-19T00:54:12;4.15;;;1.40;;
82760;SDS011;72498;42.022;21.444;2023-11-19T00:56:38;3.85;;;1.20;;
82760;SDS011;72498;42.022;21.444;2023-11-19T00:59:05;5.35;;;1.40;;
82760;SDS011;72498;42.022;21.444;2023-11-19T01:01:33;5.13;;;1.95;;
82760;SDS011;72498;42.022;21.444;2023-11-19T01:03:59;4.80;;;1.48;;
82760;SDS011;72498;42.022;21.444;2023-11-19T01:06:29;3.70;;;1.30;;
82760;SDS011;72498;42.022;21.444;2023-11-19T01:08:56;3.55;;;1.15;;
82760;SDS011;72498;42.022;21.444;2023-11-19T01:11:22;3.70;;;1.10;;
82760;SDS011;72498;42.022;21.444;2023-11-19T01:13:49;3.28;;;1.13;;
82760;SDS011;72498;42.022;21.444;2023-11-19T01:16:15;7.00;;;1.88;;
82760;SDS011;72498;42.022;21.444;2023-11-19T01:18:42;6.43;;;1.60;;
82760;SDS011;72498;42.022;21.444;2023-11-19T01:21:10;5.10;;;1.55;;
82760;SDS011;72498;42.022;21.444;2023-11-19T01:23:39;3.47;;;0.98;;
82760;SDS011;72498;42.022;21.444;2023-11-19T01:26:08;4.78;;;1.42;;
82760;SDS011;72498;42.022;21.444;2023-11-19T01:28:54;5.30;;;1.30;;
82760;SDS011;72498;42.022;21.444;2023-11-19T01:31:21;5.50;;;1.30;;
82760;SDS011;72498;42.022;21.444;2023-11-19T01:33:48;5.05;;;1.52;;
82760;SDS011;72498;42.022;21.444;2023-11-19T01:36:15;5.53;;;1.65;;
82760;SDS011;72498;42.022;21.444;2023-11-19T01:38:43;9.55;;;1.55;;
82760;SDS011;72498;42.022;21.444;2023-11-19T01:41:09;5.72;;;2.00;;
82760;SDS011;72498;42.022;21.444;2023-11-19T01:43:36;4.70;;;1.30;;
82760;SDS011;72498;42.022;21.444;2023-11-19T01:46:04;5.40;;;1.70;;
82760;SDS011;72498;42.022;21.444;2023-11-19T01:48:31;5.05;;;1.70;;
82760;SDS011;72498;42.022;21.444;2023-11-19T01:50:57;5.00;;;1.70;;
82760;SDS011;72498;42.022;21.444;2023-11-19T01:53:26;5.22;;;1.55;;
82760;SDS011;72498;42.022;21.444;2023-11-19T01:55:59;5.30;;;1.80;;
82760;SDS011;72498;42.022;21.444;2023-11-19T01:58:26;7.78;;;1.85;;
82760;SDS011;72498;42.022;21.444;2023-11-19T02:01:01;5.88;;;1.88;;
82760;SDS011;72498;42.022;21.444;2023-11-19T02:03:30;5.88;;;1.60;;
82760;SDS011;72498;42.022;21.444;2023-11-19T02:05:58;6.93;;;1.80;;
82760;SDS011;72498;42.022;21.444;2023-11-19T02:08:24;4.55;;;1.35;;
82760;SDS011;72498;42.022;21.444;2023-11-19T02:10:51;4.78;;;1.20;;
82760;SDS011;72498;42.022;21.444;2023-11-19T02:13:18;5.35;;;1.60;;
82760;SDS011;72498;42.022;21.444;2023-11-19T02:15:44;5.50;;;2.25;;
82760;SDS011;72498;42.022;21.444;2023-11-19T02:18:29;5.07;;;1.73;;
82760;SDS011;72498;42.022;21.444;2023-11-19T02:21:00;7.13;;;1.58;;
82760;SDS011;72498;42.022;21.444;2023-11-19T02:23:26;5.93;;;1.98;;
82760;SDS011;72498;42.022;21.444;2023-11-19T02:28:34;6.55;;;1.70;;
82760;SDS011;72498;42.022;21.444;2023-11-19T02:31:04;4.10;;;1.35;;
82760;SDS011;72498;42.022;21.444;2023-11-19T02:33:34;6.82;;;1.85;;
82760;SDS011;72498;42.022;21.444;2023-11-19T02:36:01;6.20;;;1.70;;
82760;SDS011;72498;42.022;21.444;2023-11-19T02:38:28;6.57;;;1.95;;
82760;SDS011;72498;42.022;21.444;2023-11-19T02:40:56;5.03;;;2.20;;
82760;SDS011;72498;42.022;21.444;2023-11-19T02:43:22;6.20;;;1.77;;
82760;SDS011;72498;42.022;21.444;2023-11-19T02:45:48;6.97;;;2.15;;
82760;SDS011;72498;42.022;21.444;2023-11-19T02:48:15;5.93;;;1.67;;
82760;SDS011;72498;42.022;21.444;2023-11-19T02:50:42;8.32;;;2.05;;
82760;SDS011;72498;42.022;21.444;2023-11-19T02:53:08;7.93;;;1.58;;
82760;SDS011;72498;42.022;21.444;2023-11-19T02:55:34;3.75;;;1.42;;
82760;SDS011;72498;42.022;21.444;2023-11-19T02:58:04;5.88;;;1.50;;
82760;SDS011;72498;42.022;21.444;2023-11-19T03:00:39;5.60;;;2.20;;
82760;SDS011;72498;42.022;21.444;2023-11-19T03:03:13;4.57;;;1.35;;
82760;SDS011;72498;42.022;21.444;2023-11-19T03:05:47;3.90;;;1.40;;
82760;SDS011;72498;42.022;21.444;2023-11-19T03:08:17;5.38;;;1.77;;
82760;SDS011;72498;42.022;21.444;2023-11-19T03:10:43;6.22;;;1.63;;
82760;SDS011;72498;42.022;21.444;2023-11-19T03:13:11;6.18;;;1.50;;
82760;SDS011;72498;42.022;21.444;2023-11-19T03:15:40;3.95;;;1.30;;
82760;SDS011;72498;42.022;21.444;2023-11-19T03:18:08;4.80;;;1.65;;
82760;SDS011;72498;42.022;21.444;2023-11-19T03:20:34;5.10;;;1.77;;
82760;SDS011;72498;42.022;21.444;2023-11-19T03:23:00;4.50;;;1.58;;
82760;SDS011;72498;42.022;21.444;2023-11-19T03:25:27;8.52;;;1.40;;
82760;SDS011;72498;42.022;21.444;2023-11-19T03:27:58;5.30;;;1.50;;
82760;SDS011;72498;42.022;21.444;2023-11-19T03:30:25;3.85;;;1.30;;
82760;SDS011;72498;42.022;21.444;2023-11-19T03:32:57;5.07;;;1.48;;
82760;SDS011;72498;42.022;21.444;2023-11-19T03:35:23;4.25;;;1.50;;
82760;SDS011;72498;42.022;21.444;2023-11-19T03:37:51;4.57;;;1.42;;
82760;SDS011;72498;42.022;21.444;2023-11-19T03:40:18;3.45;;;1.23;;
82760;SDS011;72498;42.022;21.444;2023-11-19T03:42:45;4.25;;;1.33;;
82760;SDS011;72498;42.022;21.444;2023-11-19T03:45:18;4.63;;;1.40;;
82760;SDS011;72498;42.022;21.444;2023-11-19T03:47:47;3.15;;;1.20;;
82760;SDS011;72498;42.022;21.444;2023-11-19T03:50:16;3.78;;;1.17;;
82760;SDS011;72498;42.022;21.444;2023-11-19T03:52:45;3.67;;;1.30;;
82760;SDS011;72498;42.022;21.444;2023-11-19T03:55:12;4.35;;;1.33;;
82760;SDS011;72498;42.022;21.444;2023-11-19T03:57:43;3.60;;;1.30;;
82760;SDS011;72498;42.022;21.444;2023-11-19T04:00:10;3.20;;;1.23;;
82760;SDS011;72498;42.022;21.444;2023-11-19T04:05:07;4.47;;;1.50;;
82760;SDS011;72498;42.022;21.444;2023-11-19T04:07:34;4.00;;;1.30;;
82760;SDS011;72498;42.022;21.444;2023-11-19T04:10:01;3.53;;;1.13;;
82760;SDS011;72498;42.022;21.444;2023-11-19T04:12:27;5.22;;;1.40;;
82760;SDS011;72498;42.022;21.444;2023-11-19T04:14:53;4.65;;;1.33;;
82760;SDS011;72498;42.022;21.444;2023-11-19T04:17:20;4.28;;;1.40;;
82760;SDS011;72498;42.022;21.444;2023-11-19T04:19:46;3.92;;;1.30;;
82760;SDS011;72498;42.022;21.444;2023-11-19T04:22:13;4.72;;;1.33;;
82760;SDS011;72498;42.022;21.444;2023-11-19T04:24:39;16.02;;;1.80;;
82760;SDS011;72498;42.022;21.444;2023-11-19T04:27:06;4.80;;;1.60;;
82760;SDS011;72498;42.022;21.444;2023-11-19T04:29:32;3.88;;;1.30;;
82760;SDS011;72498;42.022;21.444;2023-11-19T04:31:59;3.85;;;1.17;;
82760;SDS011;72498;42.022;21.444;2023-11-19T04:34:26;3.45;;;1.30;;
82760;SDS011;72498;42.022;21.444;2023-11-19T04:36:52;4.45;;;1.60;;
82760;SDS011;72498;42.022;21.444;2023-11-19T04:39:19;3.50;;;1.40;;
82760;SDS011;72498;42.022;21.444;2023-11-19T04:41:46;4.25;;;1.45;;
82760;SDS011;72498;42.022;21.444;2023-11-19T04:44:17;6.13;;;1.50;;
82760;SDS011;72498;42.022;21.444;2023-11-19T04:46:43;6.30;;;1.80;;
82760;SDS011;72498;42.022;21.444;2023-11-19T04:49:12;3.50;;;1.25;;
82760;SDS011;72498;42.022;21.444;2023-11-19T04:51:44;4.70;;;1.70;;
82760;SDS011;72498;42.022;21.444;2023-11-19T04:54:19;5.63;;;1.55;;
82760;SDS011;72498;42.022;21.444;2023-11-19T04:56:45;3.80;;;1.45;;
82760;SDS011;72498;42.022;21.444;2023-11-19T04:59:12;3.58;;;1.30;;
82760;SDS011;72498;42.022;21.444;2023-11-19T05:01:39;4.78;;;1.73;;
82760;SDS011;72498;42.022;21.444;2023-11-19T05:04:07;3.85;;;1.38;;
82760;SDS011;72498;42.022;21.444;2023-11-19T05:06:33;5.30;;;1.58;;
82760;SDS011;72498;42.022;21.444;2023-11-19T05:09:00;5.47;;;1.50;;
82760;SDS011;72498;42.022;21.444;2023-11-19T05:11:28;4.72;;;1.60;;
82760;SDS011;72498;42.022;21.444;2023-11-19T05:13:54;4.57;;;1.27;;
82760;SDS011;72498;42.022;21.444;2023-11-19T05:16:21;4.38;;;1.52;;
82760;SDS011;72498;42.022;21.444;2023-11-19T05:18:47;4.65;;;1.65;;
82760;SDS011;72498;42.022;21.444;2023-11-19T05:21:13;6.07;;;1.55;;
82760;SDS011;72498;42.022;21.444;2023-11-19T05:23:39;3.70;;;1.48;;
82760;SDS011;72498;42.022;21.444;2023-11-19T05:26:16;5.72;;;1.80;;
82760;SDS011;72498;42.022;21.444;2023-11-19T05:28:42;5.57;;;1.30;;
82760;SDS011;72498;42.022;21.444;2023-11-19T05:31:08;4.78;;;1.63;;
82760;SDS011;72498;42.022;21.444;2023-11-19T05:33:40;8.38;;;1.73;;
82760;SDS011;72498;42.022;21.444;2023-11-19T05:36:06;5.55;;;1.60;;
82760;SDS011;72498;42.022;21.444;2023-11-19T05:38:35;4.53;;;1.40;;
82760;SDS011;72498;42.022;21.444;2023-11-19T05:41:02;5.15;;;1.90;;
82760;SDS011;72498;42.022;21.444;2023-11-19T05:43:32;4.85;;;1.52;;
82760;SDS011;72498;42.022;21.444;2023-11-19T05:46:01;4.40;;;1.70;;
82760;SDS011;72498;42.022;21.444;2023-11-19T05:48:38;4.35;;;1.52;;
82760;SDS011;72498;42.022;21.444;2023-11-19T05:51:04;5.10;;;1.67;;
82760;SDS011;72498;42.022;21.444;2023-11-19T05:53:31;4.93;;;1.98;;
82760;SDS011;72498;42.022;21.444;2023-11-19T05:55:57;4.15;;;1.55;;
82760;SDS011;72498;42.022;21.444;2023-11-19T05:58:27;5.13;;;1.70;;
82760;SDS011;72498;42.022;21.444;2023-11-19T06:00:57;5.47;;;1.75;;
82760;SDS011;72498;42.022;21.444;2023-11-19T06:03:26;4.90;;;1.85;;
82760;SDS011;72498;42.022;21.444;2023-11-19T06:05:52;4.45;;;1.70;;
82760;SDS011;72498;42.022;21.444;2023-11-19T06:08:22;5.30;;;1.80;;
82760;SDS011;72498;42.022;21.444;2023-11-19T06:10:48;5.47;;;2.00;;
82760;SDS011;72498;42.022;21.444;2023-11-19T06:13:16;5.40;;;2.33;;
82760;SDS011;72498;42.022;21.444;2023-11-19T06:15:42;7.60;;;1.70;;
82760;SDS011;72498;42.022;21.444;2023-11-19T06:18:08;13.30;;;2.25;;
82760;SDS011;72498;42.022;21.444;2023-11-19T06:20:39;4.80;;;2.05;;
82760;SDS011;72498;42.022;21.444;2023-11-19T06:23:06;8.52;;;2.45;;
82760;SDS011;72498;42.022;21.444;2023-11-19T06:25:35;8.43;;;1.90;;
82760;SDS011;72498;42.022;21.444;2023-11-19T06:28:01;6.70;;;2.40;;
82760;SDS011;72498;42.022;21.444;2023-11-19T06:30:27;8.07;;;2.40;;
82760;SDS011;72498;42.022;21.444;2023-11-19T06:32:55;5.68;;;2.00;;
82760;SDS011;72498;42.022;21.444;2023-11-19T06:35:21;9.00;;;2.88;;
82760;SDS011;72498;42.022;21.444;2023-11-19T06:37:47;6.88;;;2.60;;
82760;SDS011;72498;42.022;21.444;2023-11-19T06:40:13;5.80;;;2.33;;
82760;SDS011;72498;42.022;21.444;2023-11-19T06:42:40;6.55;;;2.08;;
82760;SDS011;72498;42.022;21.444;2023-11-19T06:45:07;4.60;;;1.83;;
82760;SDS011;72498;42.022;21.444;2023-11-19T06:47:35;5.97;;;2.30;;
82760;SDS011;72498;42.022;21.444;2023-11-19T06:52:30;5.32;;;1.95;;
82760;SDS011;72498;42.022;21.444;2023-11-19T06:54:58;5.40;;;2.00;;
82760;SDS011;72498;42.022;21.444;2023-11-19T06:57:24;5.68;;;2.25;;
82760;SDS011;72498;42.022;21.444;2023-11-19T06:59:50;4.75;;;1.90;;
82760;SDS011;72498;42.022;21.444;2023-11-19T07:04:48;6.43;;;2.38;;
82760;SDS011;72498;42.022;21.444;2023-11-19T07:07:14;7.60;;;3.00;;
82760;SDS011;72498;42.022;21.444;2023-11-19T07:09:42;6.80;;;2.10;;
82760;SDS011;72498;42.022;21.444;2023-11-19T07:12:08;5.75;;;2.50;;
82760;SDS011;72498;42.022;21.444;2023-11-19T07:14:35;5.00;;;1.80;;
82760;SDS011;72498;42.022;21.444;2023-11-19T07:17:03;5.78;;;2.05;;
82760;SDS011;72498;42.022;21.444;2023-11-19T07:19:29;6.15;;;2.65;;
82760;SDS011;72498;42.022;21.444;2023-11-19T07:21:56;5.75;;;2.33;;
82760;SDS011;72498;42.022;21.444;2023-11-19T07:24:22;5.70;;;1.92;;
82760;SDS011;72498;42.022;21.444;2023-11-19T07:26:48;6.43;;;2.00;;
82760;SDS011;72498;42.022;21.444;2023-11-19T07:29:14;7.03;;;2.38;;
82760;SDS011;72498;42.022;21.444;2023-11-19T07:31:42;5.03;;;1.98;;
82760;SDS011;72498;42.022;21.444;2023-11-19T07:34:09;7.30;;;2.83;;
82760;SDS011;72498;42.022;21.444;2023-11-19T07:36:36;5.45;;;1.90;;
82760;SDS011;72498;42.022;21.444;2023-11-19T07:39:05;6.60;;;1.90;;
82760;SDS011;72498;42.022;21.444;2023-11-19T07:41:32;7.88;;;2.33;;
82760;SDS011;72498;42.022;21.444;2023-11-19T07:44:00;6.20;;;2.20;;
82760;SDS011;72498;42.022;21.444;2023-11-19T07:46:29;9.00;;;1.80;;
82760;SDS011;72498;42.022;21.444;2023-11-19T07:49:03;6.90;;;2.05;;
82760;SDS011;72498;42.022;21.444;2023-11-19T07:51:33;5.32;;;2.00;;
82760;SDS011;72498;42.022;21.444;2023-11-19T07:53:59;4.50;;;1.70;;
82760;SDS011;72498;42.022;21.444;2023-11-19T07:56:30;9.98;;;1.70;;
82760;SDS011;72498;42.022;21.444;2023-11-19T07:58:56;4.03;;;1.67;;
82760;SDS011;72498;42.022;21.444;2023-11-19T08:01:22;5.25;;;1.60;;
82760;SDS011;72498;42.022;21.444;2023-11-19T08:03:48;4.70;;;1.55;;
82760;SDS011;72498;42.022;21.444;2023-11-19T08:06:14;5.43;;;1.50;;
82760;SDS011;72498;42.022;21.444;2023-11-19T08:08:41;5.15;;;1.73;;
82760;SDS011;72498;42.022;21.444;2023-11-19T08:11:10;4.68;;;1.73;;
82760;SDS011;72498;42.022;21.444;2023-11-19T08:13:36;6.90;;;1.70;;
82760;SDS011;72498;42.022;21.444;2023-11-19T08:16:05;4.90;;;1.60;;
82760;SDS011;72498;42.022;21.444;2023-11-19T08:18:35;7.32;;;2.42;;
82760;SDS011;72498;42.022;21.444;2023-11-19T08:21:01;4.85;;;1.70;;
82760;SDS011;72498;42.022;21.444;2023-11-19T08:23:29;4.10;;;1.40;;
82760;SDS011;72498;42.022;21.444;2023-11-19T08:25:56;4.68;;;1.73;;
82760;SDS011;72498;42.022;21.444;2023-11-19T08:28:22;4.93;;;1.77;;
82760;SDS011;72498;42.022;21.444;2023-11-19T08:30:50;4.95;;;1.92;;
82760;SDS011;72498;42.022;21.444;2023-11-19T08:33:17;5.57;;;1.88;;
82760;SDS011;72498;42.022;21.444;2023-11-19T08:35:43;4.20;;;1.77;;
82760;SDS011;72498;42.022;21.444;2023-11-19T08:38:10;4.78;;;1.50;;
82760;SDS011;72498;42.022;21.444;2023-11-19T08:40:36;4.95;;;1.65;;
82760;SDS011;72498;42.022;21.444;2023-11-19T08:43:03;4.47;;;1.65;;
82760;SDS011;72498;42.022;21.444;2023-11-19T08:45:31;4.40;;;1.40;;
82760;SDS011;72498;42.022;21.444;2023-11-19T08:47:58;5.75;;;1.92;;
82760;SDS011;72498;42.022;21.444;2023-11-19T08:50:24;4.90;;;1.85;;
82760;SDS011;72498;42.022;21.444;2023-11-19T08:52:50;4.63;;;1.70;;
82760;SDS011;72498;42.022;21.444;2023-11-19T08:55:16;4.93;;;1.75;;
82760;SDS011;72498;42.022;21.444;2023-11-19T08:57:42;5.22;;;2.22;;
82760;SDS011;72498;42.022;21.444;2023-11-19T09:00:09;5.20;;;2.00;;
82760;SDS011;72498;42.022;21.444;2023-11-19T09:02:36;4.30;;;1.42;;
82760;SDS011;72498;42.022;21.444;2023-11-19T09:05:02;4.95;;;2.03;;
82760;SDS011;72498;42.022;21.444;2023-11-19T09:07:35;3.67;;;1.50;;
82760;SDS011;72498;42.022;21.444;2023-11-19T09:12:37;4.50;;;1.50;;
82760;SDS011;72498;42.022;21.444;2023-11-19T09:15:03;5.03;;;1.42;;
82760;SDS011;72498;42.022;21.444;2023-11-19T09:17:30;3.42;;;1.23;;
82760;SDS011;72498;42.022;21.444;2023-11-19T09:27:45;4.57;;;1.70;;
82760;SDS011;72498;42.022;21.444;2023-11-19T09:30:26;4.40;;;1.70;;
82760;SDS011;72498;42.022;21.444;2023-11-19T09:33:14;3.78;;;1.30;;
82760;SDS011;72498;42.022;21.444;2023-11-19T09:35:44;4.28;;;1.55;;
82760;SDS011;72498;42.022;21.444;2023-11-19T09:38:10;4.30;;;1.48;;
82760;SDS011;72498;42.022;21.444;2023-11-19T09:40:40;4.55;;;1.67;;
82760;SDS011;72498;42.022;21.444;2023-11-19T09:43:10;5.53;;;1.70;;
82760;SDS011;72498;42.022;21.444;2023-11-19T09:45:57;5.93;;;1.83;;
82760;SDS011;72498;42.022;21.444;2023-11-19T09:48:26;6.28;;;1.95;;
82760;SDS011;72498;42.022;21.444;2023-11-19T09:50:59;5.80;;;1.75;;
82760;SDS011;72498;42.022;21.444;2023-11-19T09:53:26;5.00;;;1.73;;
82760;SDS011;72498;42.022;21.444;2023-11-19T09:55:53;4.78;;;1.73;;
82760;SDS011;72498;42.022;21.444;2023-11-19T09:58:25;5.57;;;2.30;;
82760;SDS011;72498;42.022;21.444;2023-11-19T10:01:00;4.82;;;2.13;;
82760;SDS011;72498;42.022;21.444;2023-11-19T10:21:16;5.05;;;2.20;;
82760;SDS011;72498;42.022;21.444;2023-11-19T10:23:49;4.60;;;1.80;;
82760;SDS011;72498;42.022;21.444;2023-11-19T10:26:17;5.60;;;1.73;;
82760;SDS011;72498;42.022;21.444;2023-11-19T10:28:45;5.47;;;2.15;;
82760;SDS011;72498;42.022;21.444;2023-11-19T10:31:12;5.80;;;2.10;;
82760;SDS011;72498;42.022;21.444;2023-11-19T10:33:39;5.55;;;2.40;;
82760;SDS011;72498;42.022;21.444;2023-11-19T10:36:05;4.90;;;1.92;;
82760;SDS011;72498;42.022;21.444;2023-11-19T10:38:33;4.50;;;1.90;;
82760;SDS011;72498;42.022;21.444;2023-11-19T10:40:59;5.13;;;2.15;;
82760;SDS011;72498;42.022;21.444;2023-11-19T10:43:27;5.03;;;1.80;;
82760;SDS011;72498;42.022;21.444;2023-11-19T10:48:30;4.75;;;1.75;;
82760;SDS011;72498;42.022;21.444;2023-11-19T10:50:57;5.07;;;2.03;;
82760;SDS011;72498;42.022;21.444;2023-11-19T10:53:23;4.80;;;2.00;;
82760;SDS011;72498;42.022;21.444;2023-11-19T10:55:52;5.18;;;2.20;;
82760;SDS011;72498;42.022;21.444;2023-11-19T10:58:19;6.93;;;2.50;;
82760;SDS011;72498;42.022;21.444;2023-11-19T11:00:51;5.78;;;2.20;;
82760;SDS011;72498;42.022;21.444;2023-11-19T11:03:19;5.05;;;2.15;;
82760;SDS011;72498;42.022;21.444;2023-11-19T11:05:51;5.55;;;2.28;;
82760;SDS011;72498;42.022;21.444;2023-11-19T11:08:17;5.80;;;2.22;;
82760;SDS011;72498;42.022;21.444;2023-11-19T11:11:03;8.07;;;2.55;;
82760;SDS011;72498;42.022;21.444;2023-11-19T11:13:41;7.63;;;2.10;;
82760;SDS011;72498;42.022;21.444;2023-11-19T11:16:11;4.22;;;1.58;;
82760;SDS011;72498;42.022;21.444;2023-11-19T11:18:38;5.07;;;1.90;;
82760;SDS011;72498;42.022;21.444;2023-11-19T11:21:07;7.35;;;3.15;;
82760;SDS011;72498;42.022;21.444;2023-11-19T11:49:48;7.82;;;2.88;;
82760;SDS011;72498;42.022;21.444;2023-11-19T11:52:17;5.68;;;2.35;;
82760;SDS011;72498;42.022;21.444;2023-11-19T11:54:49;6.50;;;2.72;;
82760;SDS011;72498;42.022;21.444;2023-11-19T11:57:22;6.72;;;2.58;;
82760;SDS011;72498;42.022;21.444;2023-11-19T12:00:10;7.28;;;2.85;;
82760;SDS011;72498;42.022;21.444;2023-11-19T12:02:48;8.52;;;2.95;;
82760;SDS011;72498;42.022;21.444;2023-11-19T12:05:15;6.63;;;3.10;;
82760;SDS011;72498;42.022;21.444;2023-11-19T12:07:41;7.28;;;3.03;;
82760;SDS011;72498;42.022;21.444;2023-11-19T12:10:08;8.68;;;3.35;;
82760;SDS011;72498;42.022;21.444;2023-11-19T12:12:37;8.82;;;3.35;;
82760;SDS011;72498;42.022;21.444;2023-11-19T12:15:11;8.27;;;3.17;;
82760;SDS011;72498;42.022;21.444;2023-11-19T12:17:54;6.63;;;2.80;;
82760;SDS011;72498;42.022;21.444;2023-11-19T12:20:40;7.38;;;3.28;;
82760;SDS011;72498;42.022;21.444;2023-11-19T12:23:06;9.27;;;3.35;;
82760;SDS011;72498;42.022;21.444;2023-11-19T12:25:38;6.68;;;3.25;;
82760;SDS011;72498;42.022;21.444;2023-11-19T12:28:04;8.57;;;4.07;;
82760;SDS011;72498;42.022;21.444;2023-11-19T12:30:32;7.57;;;3.47;;
82760;SDS011;72498;42.022;21.444;2023-11-19T12:33:07;7.07;;;3.13;;
82760;SDS011;72498;42.022;21.444;2023-11-19T12:35:37;5.68;;;2.80;;
82760;SDS011;72498;42.022;21.444;2023-11-19T12:38:09;8.65;;;3.40;;
82760;SDS011;72498;42.022;21.444;2023-11-19T12:41:04;7.13;;;3.03;;
82760;SDS011;72498;42.022;21.444;2023-11-19T12:43:32;7.97;;;2.88;;
82760;SDS011;72498;42.022;21.444;2023-11-19T12:49:06;8.02;;;2.92;;
82760;SDS011;72498;42.022;21.444;2023-11-19T12:51:40;7.72;;;3.13;;
82760;SDS011;72498;42.022;21.444;2023-11-19T12:54:31;8.75;;;3.45;;
82760;SDS011;72498;42.022;21.444;2023-11-19T12:57:35;7.65;;;3.78;;
82760;SDS011;72498;42.022;21.444;2023-11-19T13:00:02;9.65;;;3.47;;
82760;SDS011;72498;42.022;21.444;2023-11-19T13:02:55;7.20;;;3.45;;
82760;SDS011;72498;42.022;21.444;2023-11-19T13:05:37;8.00;;;3.80;;
82760;SDS011;72498;42.022;21.444;2023-11-19T13:08:45;7.35;;;2.97;;
82760;SDS011;72498;42.022;21.444;2023-11-19T13:11:32;8.68;;;3.53;;
82760;SDS011;72498;42.022;21.444;2023-11-19T13:19:10;6.55;;;3.33;;
82760;SDS011;72498;42.022;21.444;2023-11-19T13:21:48;6.93;;;3.65;;
82760;SDS011;72498;42.022;21.444;2023-11-19T13:24:20;7.07;;;3.20;;
82760;SDS011;72498;42.022;21.444;2023-11-19T13:29:31;7.80;;;3.55;;
82760;SDS011;72498;42.022;21.444;2023-11-19T13:31:57;9.15;;;4.40;;
82760;SDS011;72498;42.022;21.444;2023-11-19T13:34:23;6.78;;;3.50;;
82760;SDS011;72498;42.022;21.444;2023-11-19T13:36:49;8.10;;;3.60;;
82760;SDS011;72498;42.022;21.444;2023-11-19T13:39:18;7.97;;;3.65;;
82760;SDS011;72498;42.022;21.444;2023-11-19T13:41:53;7.47;;;3.70;;
82760;SDS011;72498;42.022;21.444;2023-11-19T13:44:30;8.18;;;3.40;;
82760;SDS011;72498;42.022;21.444;2023-11-19T13:47:16;7.13;;;3.33;;
82760;SDS011;72498;42.022;21.444;2023-11-19T13:49:44;6.95;;;3.38;;
82760;SDS011;72498;42.022;21.444;2023-11-19T13:52:10;7.38;;;3.50;;
82760;SDS011;72498;42.022;21.444;2023-11-19T13:54:37;10.90;;;3.40;;
82760;SDS011;72498;42.022;21.444;2023-11-19T13:57:08;9.63;;;3.88;;
82760;SDS011;72498;42.022;21.444;2023-11-19T13:59:38;8.90;;;4.22;;
82760;SDS011;72498;42.022;21.444;2023-11-19T14:02:07;10.90;;;4.47;;
82760;SDS011;72498;42.022;21.444;2023-11-19T14:04:33;11.82;;;4.70;;
82760;SDS011;72498;42.022;21.444;2023-11-19T14:22:35;20.98;;;11.05;;
82760;SDS011;72498;42.022;21.444;2023-11-19T14:25:02;15.35;;;8.32;;
82760;SDS011;72498;42.022;21.444;2023-11-19T14:27:39;18.10;;;9.35;;
82760;SDS011;72498;42.022;21.444;2023-11-19T14:30:09;27.05;;;10.18;;
82760;SDS011;72498;42.022;21.444;2023-11-19T14:32:39;27.73;;;14.57;;
82760;SDS011;72498;42.022;21.444;2023-11-19T14:35:05;26.38;;;13.63;;
82760;SDS011;72498;42.022;21.444;2023-11-19T14:37:33;22.98;;;13.07;;
82760;SDS011;72498;42.022;21.444;2023-11-19T14:39:59;21.30;;;11.18;;
82760;SDS011;72498;42.022;21.444;2023-11-19T14:42:30;23.50;;;12.05;;
82760;SDS011;72498;42.022;21.444;2023-11-19T14:44:57;24.90;;;13.27;;
82760;SDS011;72498;42.022;21.444;2023-11-19T14:47:26;30.90;;;16.38;;
82760;SDS011;72498;42.022;21.444;2023-11-19T14:49:55;21.15;;;10.48;;
82760;SDS011;72498;42.022;21.444;2023-11-19T14:52:21;20.85;;;8.55;;
82760;SDS011;72498;42.022;21.444;2023-11-19T14:54:47;25.73;;;7.57;;
82760;SDS011;72498;42.022;21.444;2023-11-19T14:57:13;16.30;;;8.35;;
82760;SDS011;72498;42.022;21.444;2023-11-19T14:59:40;15.77;;;7.45;;
82760;SDS011;72498;42.022;21.444;2023-11-19T15:02:11;19.90;;;8.80;;
82760;SDS011;72498;42.022;21.444;2023-11-19T15:04:37;22.17;;;9.93;;
82760;SDS011;72498;42.022;21.444;2023-11-19T15:07:06;19.08;;;8.88;;
82760;SDS011;72498;42.022;21.444;2023-11-19T15:09:33;23.02;;;10.55;;
82760;SDS011;72498;42.022;21.444;2023-11-19T15:12:01;33.75;;;13.32;;
82760;SDS011;72498;42.022;21.444;2023-11-19T15:14:27;33.35;;;15.15;;
82760;SDS011;72498;42.022;21.444;2023-11-19T15:17:01;34.70;;;14.10;;
82760;SDS011;72498;42.022;21.444;2023-11-19T15:19:28;29.45;;;12.18;;
82760;SDS011;72498;42.022;21.444;2023-11-19T15:21:55;21.90;;;11.18;;
82760;SDS011;72498;42.022;21.444;2023-11-19T15:24:27;24.75;;;10.90;;
82760;SDS011;72498;42.022;21.444;2023-11-19T15:26:55;24.63;;;11.13;;
82760;SDS011;72498;42.022;21.444;2023-11-19T15:29:22;32.50;;;12.98;;
82760;SDS011;72498;42.022;21.444;2023-11-19T15:31:49;24.80;;;11.55;;
82760;SDS011;72498;42.022;21.444;2023-11-19T15:34:19;23.50;;;10.48;;
82760;SDS011;72498;42.022;21.444;2023-11-19T15:39:14;23.15;;;11.05;;
82760;SDS011;72498;42.022;21.444;2023-11-19T15:44:35;25.88;;;10.73;;
82760;SDS011;72498;42.022;21.444;2023-11-19T15:47:01;23.27;;;10.30;;
82760;SDS011;72498;42.022;21.444;2023-11-19T15:49:29;22.52;;;9.80;;
82760;SDS011;72498;42.022;21.444;2023-11-19T15:51:59;27.02;;;10.70;;
82760;SDS011;72498;42.022;21.444;2023-11-19T15:54:25;23.35;;;10.70;;
82760;SDS011;72498;42.022;21.444;2023-11-19T15:56:54;21.80;;;10.23;;
82760;SDS011;72498;42.022;21.444;2023-11-19T15:59:21;21.30;;;10.13;;
82760;SDS011;72498;42.022;21.444;2023-11-19T16:01:50;23.40;;;10.20;;
82760;SDS011;72498;42.022;21.444;2023-11-19T16:04:17;20.00;;;9.00;;
82760;SDS011;72498;42.022;21.444;2023-11-19T16:06:43;22.33;;;10.15;;
82760;SDS011;72498;42.022;21.444;2023-11-19T16:09:10;19.80;;;9.93;;
82760;SDS011;72498;42.022;21.444;2023-11-19T16:11:46;23.17;;;9.20;;
82760;SDS011;72498;42.022;21.444;2023-11-19T16:14:15;24.58;;;11.20;;
82760;SDS011;72498;42.022;21.444;2023-11-19T16:16:41;29.70;;;14.23;;
82760;SDS011;72498;42.022;21.444;2023-11-19T16:19:09;36.08;;;14.98;;
82760;SDS011;72498;42.022;21.444;2023-11-19T16:21:35;37.22;;;15.70;;